Latest Coastal Weather Observations for Warrnambool

IDV60701

Issued at 7:13 pm EDT Wednesday 1 April 2015 (issued every 10 minutes, with the page automatically refreshed every 10 minutes)

About coastal observations | Map of coastal stations | Coastal observations for VIC | Marine services | Other Formats
Station Details ID: 090186 Name: WARRNAMBOOL AIRPORT NDB Lat: -38.29 Lon: 142.45 Height: 70.8 m
Data from the previous 72 hours. | See also: Recent months at Warrnambool
Date/Time
EDT
Temp

°C
Wind Pressure Rain
since 9am
mm
Weather Cloud Vis
km
Sea
Height
m
Swell
Dir
 
Speed
knots
Gust
knots
hPa Trend Height
m
Period
s
Dir
01/07:00pm 19.5 W 15 19 1011.8 - 0.0 - Partly cloudy 10 - - - -
01/06:30pm 20.0 W 21 27 1011.0 - 0.0 - Partly cloudy 10 - - - -
01/06:00pm 21.2 WSW 19 26 1010.7 - 0.0 - Cloudy 10 - - - -
01/05:36pm 22.8 W 17 27 1010.3 - 0.0 - Mostly clear 10 - - - -
01/05:30pm 27.5 NW 15 20 1009.8 - 0.0 - Mostly clear 10 - - - -
01/05:01pm 27.7 NNW 17 27 1009.7 - 0.0 - - 10 - - - -
01/05:00pm 27.7 NNW 18 27 1009.7 - 0.0 - - 10 - - - -
01/04:30pm 28.0 NNW 17 24 1010.0 - 0.0 - - 10 - - - -
01/04:03pm 27.9 NNW 16 26 1010.0 - 0.0 - - 10 - - - -
01/04:00pm 28.0 NNW 17 26 1010.0 - 0.0 - - 10 - - - -
01/03:30pm 28.0 NNW 20 28 1010.6 - 0.0 - - 10 - - - -
01/03:20pm 28.1 NNW 15 27 1010.7 - 0.0 - - 10 - - - -
01/03:00pm 27.3 NNW 19 26 1011.0 - 0.0 - Cloudy 10 - - - -
01/02:35pm 27.2 N 20 31 1011.5 - 0.0 - - 10 - - - -
01/02:30pm 27.0 NNW 20 27 1011.7 - 0.0 - - 10 - - - -
01/02:00pm 26.9 N 18 29 1012.2 - 0.0 - - 10 - - - -
01/01:53pm 26.9 NNW 19 29 1012.4 - 0.0 - - 10 - - - -
01/01:30pm 27.2 N 23 28 1012.6 - 0.0 - - 10 - - - -
01/01:00pm 26.7 N 23 31 1013.0 - 0.0 - - 10 - - - -
01/12:37pm 26.2 N 22 32 1013.1 - 0.0 - - 10 - - - -
01/12:30pm 26.4 N 22 28 1013.3 - 0.0 - - 10 - - - -
01/12:00pm 25.6 N 22 31 1013.6 - 0.0 - Mostly cloudy 10 - - - -
01/11:30am 25.0 N 19 24 1014.1 - 0.0 - - 10 - - - -
01/11:19am 24.7 N 16 26 1014.3 - 0.0 - - 10 - - - -
01/11:00am 24.3 N 16 21 1014.7 - 0.0 - - 10 - - - -
01/10:30am 24.9 N 13 19 1015.0 - 0.0 - - 10 - - - -
01/10:00am 22.7 N 14 18 1015.2 - 0.0 - - 10 - - - -
01/09:30am 20.0 N 13 16 1015.5 - 0.0 - - 10 - - - -
01/08:30am 15.6 N 13 15 1015.8 - 0.2 - - 10 - - - -
01/08:00am 14.8 N 12 15 1016.1 - 0.2 - - 10 - - - -
01/07:30am 14.3 N 10 12 1016.1 - 0.2 - - 10 - - - -
01/07:00am 14.0 NNE 11 13 1016.3 - 0.2 - - 10 - - - -
01/06:30am 13.4 NNE 11 13 1016.4 - 0.2 - - 10 - - - -
01/06:00am 13.0 NNE 10 12 1016.6 - 0.2 - Cloudy 10 - - - -
01/05:30am 13.2 N 10 13 1016.6 - 0.2 - - - - - - -
01/05:00am 12.5 NNE 10 12 1016.8 - 0.2 - - - - - - -
01/04:30am 12.6 NNE 10 12 1017.1 - 0.2 - - - - - - -
01/04:00am 12.4 NNE 10 11 1017.6 - 0.2 - - - - - - -
01/03:30am 13.1 NNE 11 13 1017.9 - 0.2 - - - - - - -
01/03:00am 13.3 NNE 9 11 1018.4 - 0.2 - Partly cloudy - - - - -
01/02:30am 13.2 NNE 9 11 1018.8 - 0.2 - - - - - - -
01/02:00am 13.1 NNE 8 9 1019.3 - 0.2 - - - - - - -
01/01:30am 14.2 NE 8 10 1019.4 - 0.2 - - - - - - -
01/01:00am 14.7 NE 9 11 1019.7 - 0.2 - - 10 - - - -
01/12:30am 15.1 NE 7 10 1020.2 - 0.2 - - 10 - - - -
 
Date/Time
EDT
Temp

°C
Wind Pressure Rain
since 9am
mm
Weather Cloud Vis
km
Sea
Height
m
Swell
Dir
 
Speed
knots
Gust
knots
hPa Trend Height
m
Period
s
Dir
31/11:30pm 14.9 ESE 3 5 1021.0 - 0.2 - - 10 - - - -
31/11:00pm 15.2 E 4 5 1021.1 - 0.2 - - 10 - - - -
31/10:30pm 15.4 E 4 6 1021.4 - 0.2 - - 10 - - - -
31/10:00pm 14.8 E 4 6 1021.4 - 0.2 - - 10 - - - -
31/09:32pm 14.2 SSE 5 6 1021.3 - 0.2 - - 10 - - - -
31/09:30pm 13.7 SSE 5 6 1021.3 - 0.2 - - 10 - - - -
31/09:17pm 13.5 SSW 5 7 1021.4 - 0.2 - - 5 - - - -
31/09:00pm 15.3 ESE 3 5 1021.4 - 0.2 - - 10 - - - -
31/08:30pm 14.8 SSE 5 6 1021.3 - 0.2 - - 10 - - - -
31/08:00pm 15.2 S 5 6 1021.2 - 0.2 - - 10 - - - -
31/07:30pm 16.8 SSE 5 7 1021.2 - 0.2 - - 10 - - - -
31/07:00pm 18.6 SSE 8 10 1021.3 - 0.2 - - 10 - - - -
31/06:30pm 19.6 SSE 9 11 1020.9 - 0.2 - - 10 - - - -
31/06:00pm 20.4 S 10 12 1021.0 - 0.2 - - 10 - - - -
31/05:30pm 20.8 S 10 12 1021.2 - 0.2 - - 10 - - - -
31/05:00pm 21.3 S 11 14 1021.5 - 0.2 - - 10 - - - -
31/04:30pm 22.4 SSW 14 16 1021.6 - 0.2 - - 10 - - - -
31/04:00pm 25.3 SSW 8 15 1021.4 - 0.2 - - 10 - - - -
31/03:30pm 26.0 NNE 7 11 1021.9 - 0.2 - - 10 - - - -
31/03:00pm 25.3 NNE 4 7 1022.1 - 0.2 Recent precip. - 10 - - - -
31/02:30pm 24.8 NNE 5 10 1022.7 - 0.2 - - 10 - - - -
31/02:00pm 24.0 NE 6 11 1023.2 - 0.0 - - 10 - - - -
31/01:30pm 23.0 N 6 9 1023.7 - 0.0 - - 10 - - - -
31/01:00pm 22.3 N 10 13 1024.0 - 0.0 - - 10 - - - -
31/12:30pm 20.6 NNE 10 13 1024.4 - 0.0 - - 10 - - - -
31/12:00pm 19.7 NNE 9 15 1025.1 - 0.0 - - 10 - - - -
31/11:30am 16.0 NE 9 11 1025.7 - 0.0 - - 10 - - - -
31/11:00am 14.4 NE 9 11 1026.0 - 0.0 - Partly cloudy 10 - - - -
31/10:58am 14.1 NE 9 11 1026.1 - 0.0 - Partly cloudy 10 - - - -
31/10:30am 12.6 NE 9 12 1026.2 - 0.0 - Cloudy 10 - - - -
31/10:03am 12.1 NE 11 14 1025.9 - 0.0 - Cloudy 7 - - - -
31/10:00am 12.0 NE 10 13 1026.0 - 0.0 - Cloudy 6 - - - -
31/09:30am 11.4 NE 9 13 1026.1 - 0.0 - Cloudy 2 - - - -
31/09:10am 10.8 NE 9 12 1026.3 - 0.0 - Cloudy 1 - - - -
31/09:00am 10.8 NE 7 12 1026.2 - 0.0 - Cloudy 0.3 - - - -
31/08:30am 10.3 NNE 8 9 1026.4 - 0.0 - Cloudy 0.2 - - - -
31/08:00am 9.1 NNE 7 7 1026.2 - 0.0 - Cloudy 0.5 - - - -
31/07:30am 8.8 N 6 6 1025.9 - 0.0 - Cloudy 0.1 - - - -
31/07:00am 8.7 NNE 6 6 1025.6 - 0.0 - Cloudy 0.3 - - - -
31/06:35am 9.0 N 5 6 1025.6 - 0.0 - Cloudy 0.2 - - - -
31/06:32am 8.8 N 5 5 1025.6 - 0.0 - Cloudy - - - - -
31/06:30am 8.7 N 5 5 1025.6 - 0.0 - Cloudy - - - - -
31/06:00am 10.2 N 5 6 1025.3 - 0.0 - Cloudy - - - - -
31/05:30am 10.6 N 5 6 1025.0 - 0.0 - Cloudy - - - - -
31/05:00am 11.2 N 5 6 1025.2 - 0.0 - Partly cloudy - - - - -
31/04:59am 11.2 N 5 6 1025.2 - 0.0 - Partly cloudy - - - - -
31/04:30am 12.6 NE 1 5 1025.3 - 0.0 - Cloudy - - - - -
31/04:00am 12.2 N 4 5 1025.5 - 0.0 - Cloudy - - - - -
31/03:30am 12.5 N 3 4 1025.7 - 0.0 - Partly cloudy - - - - -
31/03:00am 11.7 N 3 4 1025.9 - 0.0 - Cloudy - - - - -
31/02:30am 12.0 N 3 4 1026.0 - 0.0 - Cloudy - - - - -
31/02:00am 11.7 N 5 6 1026.0 - 0.0 - Cloudy - - - - -
31/01:37am 11.5 N 4 5 1026.0 - 0.0 - Partly cloudy - - - - -
31/01:30am 11.6 N 4 5 1026.0 - 0.0 - Partly cloudy - - - - -
31/01:00am 9.8 N 4 5 1026.1 - 0.0 - Partly cloudy 0.1 - - - -
31/12:54am 9.5 N 4 5 1026.2 - 0.0 - Partly cloudy 0.1 - - - -
31/12:47am 9.8 N 4 5 1026.1 - 0.0 - Partly cloudy 0.2 - - - -
31/12:30am 9.8 N 4 5 1026.2 - 0.0 - Partly cloudy 0.1 - - - -
31/12:29am 9.7 N 4 5 1026.2 - 0.0 - Partly cloudy 0.1 - - - -
31/12:00am 10.5 N 5 6 1026.4 - 0.0 - Mostly cloudy 0.1 - - - -
 
Date/Time
EDT
Temp

°C
Wind Pressure Rain
since 9am
mm
Weather Cloud Vis
km
Sea
Height
m
Swell
Dir
 
Speed
knots
Gust
knots
hPa Trend Height
m
Period
s
Dir
30/11:45pm 10.3 N 5 5 1026.4 - 0.0 - Partly cloudy 0.1 - - - -
30/11:30pm 10.5 NNE 5 5 1026.4 - 0.0 - Partly cloudy 0.3 - - - -
30/11:27pm 10.0 NNE 4 5 1026.5 - 0.0 - Partly cloudy 0.3 - - - -
30/11:00pm 10.3 CALM 0 0 1026.4 - 0.0 - Partly cloudy 0.1 - - - -
30/10:34pm 11.0 CALM 0 0 1026.3 - 0.0 - Partly cloudy 0.1 - - - -
30/10:30pm 11.2 CALM 0 0 1026.3 - 0.0 - Partly cloudy 0.3 - - - -
30/10:26pm 11.1 CALM 0 0 1026.3 - 0.0 - Partly cloudy 0.8 - - - -
30/10:25pm 10.5 CALM 0 0 1026.3 - 0.0 - Partly cloudy 1 - - - -
30/10:00pm 12.2 CALM 0 0 1026.3 - 0.0 - - 0.5 - - - -
30/09:30pm 12.7 CALM 0 0 1026.2 - 0.0 - - 0.4 - - - -
30/09:21pm 12.5 CALM 0 0 1026.1 - 0.0 - - 1 - - - -
30/09:14pm 12.6 CALM 0 0 1026.0 - 0.0 - - 5 - - - -
30/09:00pm 13.5 CALM 0 0 1026.0 - 0.0 - - 10 - - - -
30/08:30pm 13.4 S 3 3 1025.8 - 0.0 - - 10 - - - -
30/08:00pm 14.1 SSW 6 7 1025.7 - 0.0 - Partly cloudy 10 - - - -
30/07:30pm 15.4 SSW 6 8 1025.5 - 0.0 - - 10 - - - -
30/07:00pm 17.1 SW 9 11 1025.3 - 0.0 - - 10 - - - -
30/06:30pm 17.9 SSW 9 11 1025.0 - 0.0 - Partly cloudy 10 - - - -
30/06:00pm 18.5 SSW 11 13 1024.7 - 0.0 - - 10 - - - -
30/05:30pm 19.6 SSW 11 14 1024.3 - 0.0 - - 10 - - - -
30/05:00pm 19.9 SSW 11 14 1024.2 - 0.0 - - 10 - - - -
30/04:30pm 20.1 SSW 12 15 1024.1 - 0.0 - Partly cloudy 10 - - - -
30/04:00pm 20.3 SSW 11 14 1024.1 - 0.0 - Partly cloudy 10 - - - -
30/03:30pm 20.0 SSW 10 13 1024.2 - 0.0 - Partly cloudy 10 - - - -
30/03:00pm 20.3 SSW 11 15 1024.3 - 0.0 - Cloudy 10 - - - -
30/02:30pm 19.5 SSW 11 15 1024.5 - 0.0 - Partly cloudy 10 - - - -
30/02:00pm 18.6 SSW 10 11 1024.8 - 0.0 - Partly cloudy 10 - - - -
30/01:30pm 19.1 WSW 9 13 1025.0 - 0.0 - Partly cloudy 10 - - - -
30/01:00pm 18.4 SW 9 13 1025.0 - 0.0 - Partly cloudy 10 - - - -
30/12:30pm 18.7 WNW 7 10 1025.1 - 0.0 - Partly cloudy 10 - - - -
30/12:00pm 17.3 WNW 6 9 1025.4 - 0.0 - Cloudy 10 - - - -
30/11:30am 17.4 W 6 9 1025.5 - 0.0 - Partly cloudy 10 - - - -
30/11:00am 17.1 NW 8 11 1025.4 - 0.0 - Partly cloudy 10 - - - -
30/10:30am 15.8 NW 7 9 1025.2 - 0.0 - Cloudy 10 - - - -
30/10:00am 15.0 NW 6 8 1025.0 - 0.0 - Cloudy 10 - - - -
30/09:30am 13.9 NW 7 9 1024.8 - 0.0 - Cloudy 10 - - - -
30/09:00am 11.9 N 6 8 1024.5 - 0.0 - Mostly clear 10 - - - -
30/08:30am 10.2 N 7 8 1024.0 - 0.0 - - 10 - - - -
30/08:00am 9.4 N 8 9 1024.0 - 0.0 - Partly cloudy 10 - - - -
30/07:49am 8.9 N 6 7 1023.8 - 0.0 - Partly cloudy 10 - - - -
30/07:30am 8.7 N 5 6 1023.7 - 0.0 - Partly cloudy 10 - - - -
30/07:00am 10.0 NW 1 3 1023.6 - 0.0 - Cloudy 10 - - - -
30/06:30am 9.5 W 3 5 1023.5 - 0.0 - Cloudy 10 - - - -
30/06:09am 8.8 CALM 0 0 1023.3 - 0.0 - Partly cloudy 10 - - - -
30/06:00am 8.2 CALM 0 0 1023.2 - 0.0 - Mostly clear 10 - - - -
30/05:47am 9.1 CALM 0 0 1022.9 - 0.0 - Partly cloudy 10 - - - -
30/05:30am 9.3 N 3 4 1022.9 - 0.0 - Partly cloudy 10 - - - -
30/05:00am 9.9 N 5 7 1022.8 - 0.0 - Partly cloudy 10 - - - -
30/04:47am 9.1 N 6 7 1022.7 - 0.0 - Partly cloudy 10 - - - -
30/04:30am 8.5 N 6 7 1022.8 - 0.0 - - 10 - - - -
30/04:00am 9.5 N 6 7 1022.8 - 0.0 - - 10 - - - -
30/03:30am 10.1 N 7 8 1022.7 - 0.0 - - 10 - - - -
30/03:00am 9.8 N 8 8 1022.9 - 0.0 - - 10 - - - -
30/02:30am 10.3 N 8 9 1023.1 - 0.0 - - 10 - - - -
30/02:00am 10.1 N 8 8 1023.1 - 0.0 - - 10 - - - -
30/01:30am 10.0 N 7 7 1023.2 - 0.0 - - 10 - - - -
30/01:00am 9.6 N 5 6 1023.3 - 0.0 - - 10 - - - -
30/12:30am 9.6 NNE 5 6 1023.2 - 0.0 - - 10 - - - -
30/12:00am 10.2 N 6 7 1023.4 - 0.0 - - 10 - - - -
 
Date/Time
EDT
Temp

°C
Wind Pressure Rain
since 9am
mm
Weather Cloud Vis
km
Sea
Height
m
Swell
Dir
 
Speed
knots
Gust
knots
hPa Trend Height
m
Period
s
Dir
29/11:30pm 10.3 N 5 6 1023.6 - 0.0 - - 10 - - - -
29/11:00pm 10.9 CALM 0 0 1023.6 - 0.0 - - 10 - - - -
29/10:30pm 11.1 CALM 0 0 1023.6 - 0.0 - - 10 - - - -
29/10:00pm 11.1 CALM 0 0 1023.4 - 0.0 - - 10 - - - -
29/09:30pm 12.0 WSW 3 4 1023.4 - 0.0 - - 10 - - - -
29/09:00pm 12.8 SW 3 4 1023.1 - 0.0 - - 10 - - - -
29/08:30pm 13.2 SW 5 6 1022.8 - 0.0 - - 10 - - - -
29/08:00pm 13.9 SW 7 7 1022.6 - 0.0 - - 10 - - - -
29/07:30pm 15.2 SW 8 9 1022.3 - 0.0 - - 10 - - - -

Other Formats:

Comma delimited format used in spreadsheet applications
http://www.bom.gov.au/fwo/IDV60701/IDV60701.94837.axf

JavaScript Object Notation format (JSON) in row-major order
http://www.bom.gov.au/fwo/IDV60701/IDV60701.94837.json